sensor_id;sensor_type;location;lat;lon;timestamp;pressure;altitude;pressure_sealevel;temperature;humidity
47530;BME280;33272;51.922;7.730;2024-01-15T00:01:44;99421.66;;;14.34;52.92
47530;BME280;33272;51.922;7.730;2024-01-15T00:04:11;99419.38;;;14.32;53.01
47530;BME280;33272;51.922;7.730;2024-01-15T00:06:37;99418.59;;;14.32;53.06
47530;BME280;33272;51.922;7.730;2024-01-15T00:09:04;99416.28;;;14.30;52.87
47530;BME280;33272;51.922;7.730;2024-01-15T00:11:32;99416.28;;;14.30;52.84
47530;BME280;33272;51.922;7.730;2024-01-15T00:13:58;99409.25;;;14.29;53.00
47530;BME280;33272;51.922;7.730;2024-01-15T00:16:25;99408.47;;;14.29;52.95
47530;BME280;33272;51.922;7.730;2024-01-15T00:18:53;99402.22;;;14.28;52.89
47530;BME280;33272;51.922;7.730;2024-01-15T00:21:19;99392.91;;;14.26;52.99
47530;BME280;33272;51.922;7.730;2024-01-15T00:23:46;99390.16;;;14.26;52.96
47530;BME280;33272;51.922;7.730;2024-01-15T00:26:13;99388.63;;;14.25;53.07
47530;BME280;33272;51.922;7.730;2024-01-15T00:28:39;99383.91;;;14.25;52.99
47530;BME280;33272;51.922;7.730;2024-01-15T00:31:06;99380.41;;;14.25;52.96
47530;BME280;33272;51.922;7.730;2024-01-15T00:33:32;99380.41;;;14.25;52.95
47530;BME280;33272;51.922;7.730;2024-01-15T00:36:00;99388.63;;;14.25;52.82
47530;BME280;33272;51.922;7.730;2024-01-15T00:38:27;99380.03;;;14.23;52.74
47530;BME280;33272;51.922;7.730;2024-01-15T00:40:54;99378.84;;;14.24;52.93
47530;BME280;33272;51.922;7.730;2024-01-15T00:43:21;99387.06;;;14.24;52.72
47530;BME280;33272;51.922;7.730;2024-01-15T00:45:47;99384.34;;;14.24;52.93
47530;BME280;33272;51.922;7.730;2024-01-15T00:48:14;99383.56;;;14.23;52.84
47530;BME280;33272;51.922;7.730;2024-01-15T00:50:40;99377.31;;;14.23;52.91
47530;BME280;33272;51.922;7.730;2024-01-15T00:53:08;99383.13;;;14.25;52.76
47530;BME280;33272;51.922;7.730;2024-01-15T00:55:34;99382.78;;;14.23;52.83
47530;BME280;33272;51.922;7.730;2024-01-15T00:58:02;99386.31;;;14.23;52.36
47530;BME280;33272;51.922;7.730;2024-01-15T01:00:29;99379.28;;;14.22;52.86
47530;BME280;33272;51.922;7.730;2024-01-15T01:02:56;99377.31;;;14.23;52.68
47530;BME280;33272;51.922;7.730;2024-01-15T01:05:22;99375.75;;;14.22;52.89
47530;BME280;33272;51.922;7.730;2024-01-15T01:07:49;99371.50;;;14.21;52.74
47530;BME280;33272;51.922;7.730;2024-01-15T01:10:16;99370.28;;;14.22;52.80
47530;BME280;33272;51.922;7.730;2024-01-15T01:12:43;99368.00;;;14.20;52.81
47530;BME280;33272;51.922;7.730;2024-01-15T01:15:10;99361.75;;;14.20;52.97
47530;BME280;33272;51.922;7.730;2024-01-15T01:17:36;99362.53;;;14.20;52.90
47530;BME280;33272;51.922;7.730;2024-01-15T01:20:03;99353.84;;;14.22;52.86
47530;BME280;33272;51.922;7.730;2024-01-15T01:22:31;99361.75;;;14.20;52.87
47530;BME280;33272;51.922;7.730;2024-01-15T01:24:58;99367.22;;;14.20;52.77
47530;BME280;33272;51.922;7.730;2024-01-15T01:27:26;99353.53;;;14.20;52.77
47530;BME280;33272;51.922;7.730;2024-01-15T01:29:52;99354.72;;;14.19;52.87
47530;BME280;33272;51.922;7.730;2024-01-15T01:32:19;99356.69;;;14.18;52.70
47530;BME280;33272;51.922;7.730;2024-01-15T01:34:45;99367.22;;;14.20;52.54
47530;BME280;33272;51.922;7.730;2024-01-15T01:37:12;99356.28;;;14.20;52.24
47530;BME280;33272;51.922;7.730;2024-01-15T01:39:39;99351.97;;;14.19;52.82
47530;BME280;33272;51.922;7.730;2024-01-15T01:42:05;99337.53;;;14.18;52.79
47530;BME280;33272;51.922;7.730;2024-01-15T01:44:33;99344.19;;;14.17;52.56
47530;BME280;33272;51.922;7.730;2024-01-15T01:47:01;99344.97;;;14.18;52.65
47530;BME280;33272;51.922;7.730;2024-01-15T01:49:28;99353.19;;;14.18;52.78
47530;BME280;33272;51.922;7.730;2024-01-15T01:51:57;99346.50;;;14.19;52.58
47530;BME280;33272;51.922;7.730;2024-01-15T01:54:24;99344.59;;;14.16;52.67
47530;BME280;33272;51.922;7.730;2024-01-15T01:56:51;99340.69;;;14.17;52.68
47530;BME280;33272;51.922;7.730;2024-01-15T01:59:19;99333.22;;;14.17;52.53
47530;BME280;33272;51.922;7.730;2024-01-15T02:01:48;99329.72;;;14.17;52.77
47530;BME280;33272;51.922;7.730;2024-01-15T02:04:15;99339.13;;;14.16;52.55
47530;BME280;33272;51.922;7.730;2024-01-15T02:06:42;99338.34;;;14.15;52.67
47530;BME280;33272;51.922;7.730;2024-01-15T02:09:08;99338.34;;;14.15;52.81
47530;BME280;33272;51.922;7.730;2024-01-15T02:11:35;99335.63;;;14.15;52.68
47530;BME280;33272;51.922;7.730;2024-01-15T02:14:02;99341.53;;;14.14;52.59
47530;BME280;33272;51.922;7.730;2024-01-15T02:16:29;99345.06;;;14.14;52.68
47530;BME280;33272;51.922;7.730;2024-01-15T02:18:57;99341.88;;;14.16;52.54
47530;BME280;33272;51.922;7.730;2024-01-15T02:21:23;99344.28;;;14.14;52.54
47530;BME280;33272;51.922;7.730;2024-01-15T02:23:53;99348.97;;;14.13;52.48
47530;BME280;33272;51.922;7.730;2024-01-15T02:26:19;99340.00;;;14.13;52.77
47530;BME280;33272;51.922;7.730;2024-01-15T02:28:46;99335.28;;;14.13;52.50
47530;BME280;33272;51.922;7.730;2024-01-15T02:31:12;99340.00;;;14.13;52.61
47530;BME280;33272;51.922;7.730;2024-01-15T02:33:39;99333.75;;;14.12;52.62
47530;BME280;33272;51.922;7.730;2024-01-15T02:36:07;99342.72;;;14.13;52.67
47530;BME280;33272;51.922;7.730;2024-01-15T02:38:34;99335.72;;;14.12;52.63
47530;BME280;33272;51.922;7.730;2024-01-15T02:41:02;99339.22;;;14.12;52.52
47530;BME280;33272;51.922;7.730;2024-01-15T02:43:28;99343.16;;;14.11;52.78
47530;BME280;33272;51.922;7.730;2024-01-15T02:45:55;99336.47;;;14.12;52.45
47530;BME280;33272;51.922;7.730;2024-01-15T02:48:21;99335.72;;;14.12;52.62
47530;BME280;33272;51.922;7.730;2024-01-15T02:50:48;99339.63;;;14.11;52.43
47530;BME280;33272;51.922;7.730;2024-01-15T02:53:14;99340.81;;;14.10;52.63
47530;BME280;33272;51.922;7.730;2024-01-15T02:55:41;99347.06;;;14.10;52.50
47530;BME280;33272;51.922;7.730;2024-01-15T02:58:09;99344.34;;;14.10;52.43
47530;BME280;33272;51.922;7.730;2024-01-15T03:00:35;99347.53;;;14.09;52.62
47530;BME280;33272;51.922;7.730;2024-01-15T03:03:02;99353.00;;;14.09;52.64
47530;BME280;33272;51.922;7.730;2024-01-15T03:05:28;99338.53;;;14.08;52.57
47530;BME280;33272;51.922;7.730;2024-01-15T03:07:55;99337.75;;;14.08;52.63
47530;BME280;33272;51.922;7.730;2024-01-15T03:10:21;99344.78;;;14.09;52.29
47530;BME280;33272;51.922;7.730;2024-01-15T03:12:48;99343.25;;;14.08;52.44
47530;BME280;33272;51.922;7.730;2024-01-15T03:15:16;99331.50;;;14.07;52.41
47530;BME280;33272;51.922;7.730;2024-01-15T03:17:43;99337.75;;;14.08;52.70
47530;BME280;33272;51.922;7.730;2024-01-15T03:20:11;99333.47;;;14.07;52.58
47530;BME280;33272;51.922;7.730;2024-01-15T03:22:37;99331.94;;;14.06;52.35
47530;BME280;33272;51.922;7.730;2024-01-15T03:25:04;99338.19;;;14.06;52.52
47530;BME280;33272;51.922;7.730;2024-01-15T03:27:31;99338.59;;;14.05;52.42
47530;BME280;33272;51.922;7.730;2024-01-15T03:29:58;99341.34;;;14.05;52.44
47530;BME280;33272;51.922;7.730;2024-01-15T03:32:25;99345.63;;;14.06;52.30
47530;BME280;33272;51.922;7.730;2024-01-15T03:34:52;99339.38;;;14.05;52.38
47530;BME280;33272;51.922;7.730;2024-01-15T03:37:18;99338.59;;;14.05;52.26
47530;BME280;33272;51.922;7.730;2024-01-15T03:39:45;99323.38;;;14.04;52.24
47530;BME280;33272;51.922;7.730;2024-01-15T03:42:12;99339.03;;;14.03;52.35
47530;BME280;33272;51.922;7.730;2024-01-15T03:44:39;99331.56;;;14.04;52.20
47530;BME280;33272;51.922;7.730;2024-01-15T03:47:06;99336.31;;;14.03;52.50
47530;BME280;33272;51.922;7.730;2024-01-15T03:49:34;99342.53;;;14.04;52.23
47530;BME280;33272;51.922;7.730;2024-01-15T03:52:00;99337.50;;;14.02;52.39
47530;BME280;33272;51.922;7.730;2024-01-15T03:54:27;99330.06;;;14.03;52.20
47530;BME280;33272;51.922;7.730;2024-01-15T03:56:53;99332.03;;;14.02;52.20
47530;BME280;33272;51.922;7.730;2024-01-15T03:59:20;99332.03;;;14.02;52.35
47530;BME280;33272;51.922;7.730;2024-01-15T04:01:49;99316.38;;;14.03;52.42
47530;BME280;33272;51.922;7.730;2024-01-15T04:04:16;99319.09;;;14.03;52.25
47530;BME280;33272;51.922;7.730;2024-01-15T04:06:44;99316.38;;;14.03;52.22
47530;BME280;33272;51.922;7.730;2024-01-15T04:09:12;99326.53;;;14.02;52.52
47530;BME280;33272;51.922;7.730;2024-01-15T04:11:38;99318.75;;;14.01;52.45
47530;BME280;33272;51.922;7.730;2024-01-15T04:14:05;99317.97;;;14.00;52.48
47530;BME280;33272;51.922;7.730;2024-01-15T04:16:31;99317.22;;;13.99;52.52
47530;BME280;33272;51.922;7.730;2024-01-15T04:18:58;99324.22;;;14.01;52.30
47530;BME280;33272;51.922;7.730;2024-01-15T04:21:24;99328.94;;;14.00;52.40
47530;BME280;33272;51.922;7.730;2024-01-15T04:23:52;99323.03;;;14.02;52.35
47530;BME280;33272;51.922;7.730;2024-01-15T04:26:18;99313.69;;;13.99;52.36
47530;BME280;33272;51.922;7.730;2024-01-15T04:28:45;99308.22;;;13.99;52.38
47530;BME280;33272;51.922;7.730;2024-01-15T04:31:20;99306.69;;;13.98;52.42
47530;BME280;33272;51.922;7.730;2024-01-15T04:33:47;99302.75;;;13.99;52.55
47530;BME280;33272;51.922;7.730;2024-01-15T04:36:13;99312.16;;;13.98;52.33
47530;BME280;33272;51.922;7.730;2024-01-15T04:38:40;99302.75;;;13.99;52.18
47530;BME280;33272;51.922;7.730;2024-01-15T04:41:11;99317.63;;;13.98;52.09
47530;BME280;33272;51.922;7.730;2024-01-15T04:43:37;99312.94;;;13.98;52.34
47530;BME280;33272;51.922;7.730;2024-01-15T04:46:05;99313.69;;;13.99;52.29
47530;BME280;33272;51.922;7.730;2024-01-15T04:48:32;99307.91;;;13.97;52.37
47530;BME280;33272;51.922;7.730;2024-01-15T04:50:58;99308.66;;;13.97;52.31
47530;BME280;33272;51.922;7.730;2024-01-15T04:53:25;99309.84;;;13.96;52.42
47530;BME280;33272;51.922;7.730;2024-01-15T04:55:51;99303.19;;;13.97;52.27
47530;BME280;33272;51.922;7.730;2024-01-15T04:58:19;99304.72;;;13.98;52.35
47530;BME280;33272;51.922;7.730;2024-01-15T05:00:46;99289.94;;;13.96;52.49
47530;BME280;33272;51.922;7.730;2024-01-15T05:03:12;99285.56;;;13.98;52.37
47530;BME280;33272;51.922;7.730;2024-01-15T05:05:39;99288.66;;;14.01;52.46
47530;BME280;33272;51.922;7.730;2024-01-15T05:08:05;99283.16;;;14.01;52.44
47530;BME280;33272;51.922;7.730;2024-01-15T05:10:32;99281.56;;;14.03;52.39
47530;BME280;33272;51.922;7.730;2024-01-15T05:12:58;99282.31;;;14.04;52.42
47530;BME280;33272;51.922;7.730;2024-01-15T05:15:26;99284.22;;;14.07;52.49
47530;BME280;33272;51.922;7.730;2024-01-15T05:17:53;99276.78;;;14.07;52.42
47530;BME280;33272;51.922;7.730;2024-01-15T05:20:19;99282.59;;;14.09;52.48
47530;BME280;33272;51.922;7.730;2024-01-15T05:22:46;99279.00;;;14.12;52.24
47530;BME280;33272;51.922;7.730;2024-01-15T05:25:12;99279.34;;;14.14;52.48
47530;BME280;33272;51.922;7.730;2024-01-15T05:27:39;99275.38;;;14.15;52.39
47530;BME280;33272;51.922;7.730;2024-01-15T05:30:06;99271.03;;;14.18;52.36
47530;BME280;33272;51.922;7.730;2024-01-15T05:32:34;99277.63;;;14.20;52.28
47530;BME280;33272;51.922;7.730;2024-01-15T05:35:00;99278.41;;;14.21;52.33
47530;BME280;33272;51.922;7.730;2024-01-15T05:37:27;99274.81;;;14.24;52.35
47530;BME280;33272;51.922;7.730;2024-01-15T05:39:53;99277.13;;;14.25;52.26
47530;BME280;33272;51.922;7.730;2024-01-15T05:42:20;99274.72;;;14.27;52.23
47530;BME280;33272;51.922;7.730;2024-01-15T05:44:46;99276.25;;;14.28;52.46
47530;BME280;33272;51.922;7.730;2024-01-15T05:47:13;99269.16;;;14.31;52.48
47530;BME280;33272;51.922;7.730;2024-01-15T05:49:41;99273.00;;;14.33;52.32
47530;BME280;33272;51.922;7.730;2024-01-15T05:52:07;99269.06;;;14.34;52.20
47530;BME280;33272;51.922;7.730;2024-01-15T05:54:34;99273.72;;;14.37;52.50
47530;BME280;33272;51.922;7.730;2024-01-15T05:57:00;99269.03;;;14.38;52.08
47530;BME280;33272;51.922;7.730;2024-01-15T05:59:27;99265.06;;;14.39;52.25
47530;BME280;33272;51.922;7.730;2024-01-15T06:01:57;99273.63;;;14.41;52.08
47530;BME280;33272;51.922;7.730;2024-01-15T06:04:23;99270.13;;;14.41;52.14
47530;BME280;33272;51.922;7.730;2024-01-15T06:06:51;99271.25;;;14.43;52.20
47530;BME280;33272;51.922;7.730;2024-01-15T06:09:17;99272.03;;;14.44;51.80
47530;BME280;33272;51.922;7.730;2024-01-15T06:11:44;99268.84;;;14.45;51.97
47530;BME280;33272;51.922;7.730;2024-01-15T06:14:11;99263.81;;;14.44;51.95
47530;BME280;33272;51.922;7.730;2024-01-15T06:16:37;99266.88;;;14.46;51.93
47530;BME280;33272;51.922;7.730;2024-01-15T06:19:04;99258.66;;;14.46;52.00
47530;BME280;33272;51.922;7.730;2024-01-15T06:21:30;99258.22;;;14.47;52.01
47530;BME280;33272;51.922;7.730;2024-01-15T06:23:58;99263.28;;;14.49;52.08
47530;BME280;33272;51.922;7.730;2024-01-15T06:26:24;99258.56;;;14.49;51.91
47530;BME280;33272;51.922;7.730;2024-01-15T06:28:51;99257.34;;;14.50;51.90
47530;BME280;33272;51.922;7.730;2024-01-15T06:31:17;99265.91;;;14.52;52.28
47530;BME280;33272;51.922;7.730;2024-01-15T06:33:44;99265.50;;;14.54;51.91
47530;BME280;33272;51.922;7.730;2024-01-15T06:36:13;99267.03;;;14.55;51.94
47530;BME280;33272;51.922;7.730;2024-01-15T06:38:42;99268.13;;;14.57;51.84
47530;BME280;33272;51.922;7.730;2024-01-15T06:41:10;99270.81;;;14.61;51.83
47530;BME280;33272;51.922;7.730;2024-01-15T06:43:37;99268.50;;;14.59;51.88
47530;BME280;33272;51.922;7.730;2024-01-15T06:46:03;99275.84;;;14.62;51.90
47530;BME280;33272;51.922;7.730;2024-01-15T06:48:30;99269.94;;;14.64;52.05
47530;BME280;33272;51.922;7.730;2024-01-15T06:50:56;99266.00;;;14.65;51.67
47530;BME280;33272;51.922;7.730;2024-01-15T06:53:23;99274.56;;;14.67;51.84
47530;BME280;33272;51.922;7.730;2024-01-15T06:55:49;99271.38;;;14.68;51.82
47530;BME280;33272;51.922;7.730;2024-01-15T06:58:17;99282.69;;;14.70;51.89
47530;BME280;33272;51.922;7.730;2024-01-15T07:00:44;99276.00;;;14.71;51.85
47530;BME280;33272;51.922;7.730;2024-01-15T07:03:11;99277.56;;;14.72;51.85
47530;BME280;33272;51.922;7.730;2024-01-15T07:05:37;99279.06;;;14.73;51.87
47530;BME280;33272;51.922;7.730;2024-01-15T07:08:04;99286.09;;;14.74;51.69
47530;BME280;33272;51.922;7.730;2024-01-15T07:10:30;99291.16;;;14.76;51.82
47530;BME280;33272;51.922;7.730;2024-01-15T07:12:57;99291.91;;;14.76;51.67
47530;BME280;33272;51.922;7.730;2024-01-15T07:15:25;99297.75;;;14.78;51.78
47530;BME280;33272;51.922;7.730;2024-01-15T07:17:52;99286.03;;;14.78;51.60
47530;BME280;33272;51.922;7.730;2024-01-15T07:20:18;99292.59;;;14.80;51.84
47530;BME280;33272;51.922;7.730;2024-01-15T07:22:45;99285.91;;;14.82;51.58
47530;BME280;33272;51.922;7.730;2024-01-15T07:25:12;99280.44;;;14.82;51.79
47530;BME280;33272;51.922;7.730;2024-01-15T07:27:39;99280.00;;;14.83;51.78
47530;BME280;33272;51.922;7.730;2024-01-15T07:30:08;99279.59;;;14.85;51.82
47530;BME280;33272;51.922;7.730;2024-01-15T07:32:36;99274.09;;;14.85;51.75
47530;BME280;33272;51.922;7.730;2024-01-15T07:35:03;99269.38;;;14.85;51.81
47530;BME280;33272;51.922;7.730;2024-01-15T07:37:30;99273.66;;;14.86;51.71
47530;BME280;33272;51.922;7.730;2024-01-15T07:39:56;99272.47;;;14.87;51.63
47530;BME280;33272;51.922;7.730;2024-01-15T07:42:23;99277.94;;;14.87;51.77
47530;BME280;33272;51.922;7.730;2024-01-15T07:44:49;99280.25;;;14.89;51.69
47530;BME280;33272;51.922;7.730;2024-01-15T07:47:16;99283.00;;;14.89;51.79
47530;BME280;33272;51.922;7.730;2024-01-15T07:49:44;99280.59;;;14.91;51.49
47530;BME280;33272;51.922;7.730;2024-01-15T07:52:11;99282.56;;;14.90;51.77
47530;BME280;33272;51.922;7.730;2024-01-15T07:54:38;99282.88;;;14.92;51.68
47530;BME280;33272;51.922;7.730;2024-01-15T07:57:05;99274.66;;;14.92;51.56
47530;BME280;33272;51.922;7.730;2024-01-15T07:59:31;99278.94;;;14.93;51.91
47530;BME280;33272;51.922;7.730;2024-01-15T08:01:59;99274.25;;;14.94;51.49
47530;BME280;33272;51.922;7.730;2024-01-15T08:04:25;99270.72;;;14.93;51.58
47530;BME280;33272;51.922;7.730;2024-01-15T08:06:53;99278.53;;;14.95;51.53
47530;BME280;33272;51.922;7.730;2024-01-15T08:09:20;99279.31;;;14.95;51.57
47530;BME280;33272;51.922;7.730;2024-01-15T08:11:46;99269.09;;;14.96;51.58
47530;BME280;33272;51.922;7.730;2024-01-15T08:14:14;99282.81;;;14.96;51.70
47530;BME280;33272;51.922;7.730;2024-01-15T08:16:41;99278.84;;;14.97;51.57
47530;BME280;33272;51.922;7.730;2024-01-15T08:19:09;99272.16;;;14.98;51.26
47530;BME280;33272;51.922;7.730;2024-01-15T08:21:35;99270.19;;;14.98;51.67
47530;BME280;33272;51.922;7.730;2024-01-15T08:24:03;99275.25;;;15.00;51.45
47530;BME280;33272;51.922;7.730;2024-01-15T08:26:30;99279.19;;;14.99;51.49
47530;BME280;33272;51.922;7.730;2024-01-15T08:28:57;99285.44;;;14.99;51.37
47530;BME280;33272;51.922;7.730;2024-01-15T08:31:24;99291.72;;;15.00;51.62
47530;BME280;33272;51.922;7.730;2024-01-15T08:33:50;99288.53;;;15.01;51.56
47530;BME280;33272;51.922;7.730;2024-01-15T08:36:18;99274.47;;;14.99;51.36
47530;BME280;33272;51.922;7.730;2024-01-15T08:38:44;99283.47;;;15.00;51.64
47530;BME280;33272;51.922;7.730;2024-01-15T08:41:12;99277.22;;;14.99;51.59
47530;BME280;33272;51.922;7.730;2024-01-15T08:43:39;99276.88;;;14.97;51.60
47530;BME280;33272;51.922;7.730;2024-01-15T08:46:05;99281.59;;;14.97;51.57
47530;BME280;33272;51.922;7.730;2024-01-15T08:48:32;99275.00;;;14.94;51.38
47530;BME280;33272;51.922;7.730;2024-01-15T08:50:58;99285.22;;;14.94;51.54
47530;BME280;33272;51.922;7.730;2024-01-15T08:53:25;99276.22;;;14.93;51.47
47530;BME280;33272;51.922;7.730;2024-01-15T08:55:52;99275.44;;;14.93;51.47
47530;BME280;33272;51.922;7.730;2024-01-15T08:58:20;99276.63;;;14.92;51.65
47530;BME280;33272;51.922;7.730;2024-01-15T09:00:46;99276.31;;;14.90;51.48
47530;BME280;33272;51.922;7.730;2024-01-15T09:03:13;99274.78;;;14.89;51.61
47530;BME280;33272;51.922;7.730;2024-01-15T09:05:39;99283.41;;;14.87;51.45
47530;BME280;33272;51.922;7.730;2024-01-15T09:08:06;99286.94;;;14.88;51.29
47530;BME280;33272;51.922;7.730;2024-01-15T09:10:33;99285.38;;;14.87;51.85
47530;BME280;33272;51.922;7.730;2024-01-15T09:12:59;99287.34;;;14.86;51.74
47530;BME280;33272;51.922;7.730;2024-01-15T09:15:27;99285.81;;;14.85;51.60
47530;BME280;33272;51.922;7.730;2024-01-15T09:17:54;99291.75;;;14.84;51.71
47530;BME280;33272;51.922;7.730;2024-01-15T09:20:22;99282.75;;;14.83;51.74
47530;BME280;33272;51.922;7.730;2024-01-15T09:22:49;99269.47;;;14.82;51.59
47530;BME280;33272;51.922;7.730;2024-01-15T09:25:16;99281.22;;;14.82;51.89
47530;BME280;33272;51.922;7.730;2024-01-15T09:27:42;99276.16;;;14.80;51.77
47530;BME280;33272;51.922;7.730;2024-01-15T09:30:09;99274.94;;;14.82;51.77
47530;BME280;33272;51.922;7.730;2024-01-15T09:32:37;99271.88;;;14.79;51.80
47530;BME280;33272;51.922;7.730;2024-01-15T09:35:05;99280.53;;;14.78;51.87
47530;BME280;33272;51.922;7.730;2024-01-15T09:37:32;99279.00;;;14.77;51.96
47530;BME280;33272;51.922;7.730;2024-01-15T09:39:58;99287.22;;;14.77;51.90
47530;BME280;33272;51.922;7.730;2024-01-15T09:42:25;99283.34;;;14.74;52.00
47530;BME280;33272;51.922;7.730;2024-01-15T09:44:52;99277.09;;;14.74;51.98
47530;BME280;33272;51.922;7.730;2024-01-15T09:47:19;99286.53;;;14.73;52.00
47530;BME280;33272;51.922;7.730;2024-01-15T09:49:48;99294.00;;;14.72;52.09
47530;BME280;33272;51.922;7.730;2024-01-15T09:52:16;99292.44;;;14.71;52.24
47530;BME280;33272;51.922;7.730;2024-01-15T09:54:45;99304.19;;;14.72;52.24
47530;BME280;33272;51.922;7.730;2024-01-15T09:57:12;99306.16;;;14.71;52.38
47530;BME280;33272;51.922;7.730;2024-01-15T09:59:40;99307.69;;;14.72;52.48
47530;BME280;33272;51.922;7.730;2024-01-15T10:02:10;99300.31;;;14.69;52.74
47530;BME280;33272;51.922;7.730;2024-01-15T10:04:40;99301.88;;;14.70;52.70
47530;BME280;33272;51.922;7.730;2024-01-15T10:07:12;99295.63;;;14.70;52.60
47530;BME280;33272;51.922;7.730;2024-01-15T10:09:41;99301.09;;;14.70;52.67
47530;BME280;33272;51.922;7.730;2024-01-15T10:12:08;99286.97;;;14.71;52.74
47530;BME280;33272;51.922;7.730;2024-01-15T10:14:35;99278.41;;;14.69;52.66
47530;BME280;33272;51.922;7.730;2024-01-15T10:17:11;99279.94;;;14.70;52.58
47530;BME280;33272;51.922;7.730;2024-01-15T10:19:38;99274.47;;;14.70;52.55
47530;BME280;33272;51.922;7.730;2024-01-15T10:22:06;99271.72;;;14.70;52.69
47530;BME280;33272;51.922;7.730;2024-01-15T10:24:35;99272.50;;;14.71;52.71
47530;BME280;33272;51.922;7.730;2024-01-15T10:27:05;99275.25;;;14.71;52.58
47530;BME280;33272;51.922;7.730;2024-01-15T10:29:32;99274.03;;;14.72;52.67
47530;BME280;33272;51.922;7.730;2024-01-15T10:31:59;99263.06;;;14.72;52.83
47530;BME280;33272;51.922;7.730;2024-01-15T10:34:26;99264.63;;;14.73;52.73
47530;BME280;33272;51.922;7.730;2024-01-15T10:36:53;99260.34;;;14.72;52.71
47530;BME280;33272;51.922;7.730;2024-01-15T10:39:21;99263.84;;;14.72;52.76
47530;BME280;33272;51.922;7.730;2024-01-15T10:41:49;99258.69;;;14.74;52.63
47530;BME280;33272;51.922;7.730;2024-01-15T10:44:16;99257.91;;;14.74;52.86
47530;BME280;33272;51.922;7.730;2024-01-15T10:46:43;99258.69;;;14.74;52.62
47530;BME280;33272;51.922;7.730;2024-01-15T10:49:12;99259.47;;;14.75;52.71
47530;BME280;33272;51.922;7.730;2024-01-15T10:51:39;99257.50;;;14.75;52.64
47530;BME280;33272;51.922;7.730;2024-01-15T10:54:08;99260.22;;;14.75;52.58
47530;BME280;33272;51.922;7.730;2024-01-15T10:56:37;99267.25;;;14.76;52.40
47530;BME280;33272;51.922;7.730;2024-01-15T10:59:06;99261.34;;;14.78;52.67
47530;BME280;33272;51.922;7.730;2024-01-15T11:01:35;99250.81;;;14.76;52.76
47530;BME280;33272;51.922;7.730;2024-01-15T11:04:03;99264.88;;;14.78;52.67
47530;BME280;33272;51.922;7.730;2024-01-15T11:06:42;99263.31;;;14.77;52.62
47530;BME280;33272;51.922;7.730;2024-01-15T11:09:09;99264.88;;;14.78;52.37
47530;BME280;33272;51.922;7.730;2024-01-15T11:11:35;99264.88;;;14.78;52.59
47530;BME280;33272;51.922;7.730;2024-01-15T11:14:02;99264.09;;;14.78;52.53
47530;BME280;33272;51.922;7.730;2024-01-15T11:16:53;99268.81;;;14.77;52.46
47530;BME280;33272;51.922;7.730;2024-01-15T11:19:20;99263.63;;;14.79;52.53
47530;BME280;33272;51.922;7.730;2024-01-15T11:21:46;99256.97;;;14.80;52.56
47530;BME280;33272;51.922;7.730;2024-01-15T11:24:33;99254.31;;;14.77;52.25
47530;BME280;33272;51.922;7.730;2024-01-15T11:27:01;99256.97;;;14.80;52.58
47530;BME280;33272;51.922;7.730;2024-01-15T11:29:32;99264.41;;;14.80;52.45
47530;BME280;33272;51.922;7.730;2024-01-15T11:32:03;99266.72;;;14.82;52.39
47530;BME280;33272;51.922;7.730;2024-01-15T11:34:50;99263.31;;;14.77;52.25
47530;BME280;33272;51.922;7.730;2024-01-15T11:37:16;99260.59;;;14.77;52.37
47530;BME280;33272;51.922;7.730;2024-01-15T11:39:43;99259.38;;;14.78;52.41
47530;BME280;33272;51.922;7.730;2024-01-15T11:42:11;99260.91;;;14.79;52.66
47530;BME280;33272;51.922;7.730;2024-01-15T11:44:38;99260.91;;;14.79;52.42
47530;BME280;33272;51.922;7.730;2024-01-15T11:47:07;99260.91;;;14.79;52.35
47530;BME280;33272;51.922;7.730;2024-01-15T11:49:53;99260.59;;;14.77;52.20
47530;BME280;33272;51.922;7.730;2024-01-15T11:52:25;99270.34;;;14.78;52.34
47530;BME280;33272;51.922;7.730;2024-01-15T11:55:00;99256.66;;;14.78;52.28
47530;BME280;33272;51.922;7.730;2024-01-15T11:57:37;99249.94;;;14.79;52.31
47530;BME280;33272;51.922;7.730;2024-01-15T12:00:08;99251.47;;;14.80;52.24
47530;BME280;33272;51.922;7.730;2024-01-15T12:02:36;99250.28;;;14.82;52.13
47530;BME280;33272;51.922;7.730;2024-01-15T12:05:03;99244.81;;;14.82;52.33
47530;BME280;33272;51.922;7.730;2024-01-15T12:07:29;99249.09;;;14.83;52.25
47530;BME280;33272;51.922;7.730;2024-01-15T12:09:56;99249.09;;;14.83;52.48
47530;BME280;33272;51.922;7.730;2024-01-15T12:12:27;99247.13;;;14.83;52.05
47530;BME280;33272;51.922;7.730;2024-01-15T12:14:55;99260.06;;;14.83;52.26
47530;BME280;33272;51.922;7.730;2024-01-15T12:17:22;99263.56;;;14.83;52.11
47530;BME280;33272;51.922;7.730;2024-01-15T12:19:50;99251.84;;;14.83;52.11
47530;BME280;33272;51.922;7.730;2024-01-15T12:22:16;99264.00;;;14.82;52.05
47530;BME280;33272;51.922;7.730;2024-01-15T12:24:43;99265.97;;;14.81;52.08
47530;BME280;33272;51.922;7.730;2024-01-15T12:27:10;99267.94;;;14.80;52.28
47530;BME280;33272;51.922;7.730;2024-01-15T12:29:37;99255.78;;;14.82;51.97
47530;BME280;33272;51.922;7.730;2024-01-15T12:32:05;99258.50;;;14.82;51.95
47530;BME280;33272;51.922;7.730;2024-01-15T12:34:32;99258.50;;;14.82;52.03
47530;BME280;33272;51.922;7.730;2024-01-15T12:37:00;99258.50;;;14.82;51.99
47530;BME280;33272;51.922;7.730;2024-01-15T12:39:26;99264.75;;;14.82;51.97
47530;BME280;33272;51.922;7.730;2024-01-15T12:41:53;99262.44;;;14.80;52.20
47530;BME280;33272;51.922;7.730;2024-01-15T12:44:20;99270.66;;;14.80;52.24
47530;BME280;33272;51.922;7.730;2024-01-15T12:46:46;99266.38;;;14.79;52.04
47530;BME280;33272;51.922;7.730;2024-01-15T12:49:13;99260.91;;;14.79;52.25
47530;BME280;33272;51.922;7.730;2024-01-15T12:51:39;99263.63;;;14.79;51.90
47530;BME280;33272;51.922;7.730;2024-01-15T12:54:07;99256.97;;;14.80;51.89
47530;BME280;33272;51.922;7.730;2024-01-15T12:56:34;99262.13;;;14.78;51.99
47530;BME280;33272;51.922;7.730;2024-01-15T12:59:00;99261.69;;;14.80;51.97
47530;BME280;33272;51.922;7.730;2024-01-15T13:01:27;99254.22;;;14.80;52.26